createdAt,value
2022-08-16T00:00:46.780Z,19.20
2022-08-16T00:03:15.107Z,19.30
2022-08-16T00:05:47.823Z,19.20
2022-08-16T00:08:30.590Z,19.20
2022-08-16T00:11:05.253Z,19.20
2022-08-16T00:13:41.844Z,19.20
2022-08-16T00:17:06.039Z,19.20
2022-08-16T00:19:00.200Z,19.20
2022-08-16T00:21:28.956Z,19.20
2022-08-16T00:23:57.558Z,19.10
2022-08-16T00:26:35.847Z,19.00
2022-08-16T00:29:15.730Z,18.90
2022-08-16T00:31:59.094Z,18.80
2022-08-16T00:34:43.159Z,18.60
2022-08-16T00:37:20.225Z,18.50
2022-08-16T00:39:57.391Z,18.50
2022-08-16T00:42:31.802Z,18.50
2022-08-16T00:45:09.791Z,18.60
2022-08-16T00:47:49.388Z,18.50
2022-08-16T00:50:20.499Z,18.50
2022-08-16T00:52:51.328Z,18.50
2022-08-16T00:55:22.016Z,18.50
2022-08-16T00:57:59.973Z,18.60
2022-08-16T01:00:33.523Z,18.60
2022-08-16T01:03:05.403Z,18.70
2022-08-16T01:05:33.983Z,18.70
2022-08-16T01:08:35.276Z,18.50
2022-08-16T01:10:52.820Z,18.30
2022-08-16T01:13:23.981Z,18.30
2022-08-16T01:16:00.997Z,18.40
2022-08-16T01:18:40.507Z,18.30
2022-08-16T01:21:22.523Z,18.20
2022-08-16T01:24:44.610Z,18.10
2022-08-16T01:27:04.560Z,17.90
2022-08-16T01:29:57.615Z,17.90
2022-08-16T01:32:31.625Z,18.00
2022-08-16T01:35:05.404Z,17.90
2022-08-16T01:37:42.191Z,17.90
2022-08-16T01:40:15.609Z,17.90
2022-08-16T01:42:47.962Z,17.90
2022-08-16T01:45:19.758Z,17.90
2022-08-16T01:47:52.046Z,17.60
2022-08-16T01:50:42.999Z,17.60
2022-08-16T01:53:11.228Z,17.50
2022-08-16T01:55:42.876Z,17.50
2022-08-16T01:58:23.783Z,17.40
2022-08-16T02:00:52.192Z,17.40
2022-08-16T02:03:24.443Z,17.30
2022-08-16T02:05:54.886Z,17.30
2022-08-16T02:08:33.073Z,17.30
2022-08-16T02:11:04.858Z,17.20
2022-08-16T02:13:33.075Z,17.20
2022-08-16T02:16:01.254Z,17.20
2022-08-16T02:18:29.932Z,17.20
2022-08-16T02:20:58.368Z,17.30
2022-08-16T02:23:29.645Z,17.30
2022-08-16T02:25:59.518Z,17.20
2022-08-16T02:28:30.032Z,17.00
2022-08-16T02:31:03.204Z,16.90
2022-08-16T02:33:44.380Z,16.90
2022-08-16T02:36:48.032Z,16.80
2022-08-16T02:39:07.817Z,16.80
2022-08-16T02:41:39.566Z,16.80
2022-08-16T02:44:13.845Z,16.80
2022-08-16T02:46:50.291Z,16.80
2022-08-16T02:49:19.368Z,16.70
2022-08-16T02:51:48.996Z,16.70
2022-08-16T02:54:18.358Z,16.70
2022-08-16T02:56:47.924Z,16.70
2022-08-16T02:59:17.669Z,16.80
2022-08-16T03:01:47.641Z,16.80
2022-08-16T03:04:30.061Z,16.90
2022-08-16T03:07:06.198Z,17.00
2022-08-16T03:09:34.583Z,17.20
2022-08-16T03:12:03.782Z,17.20
2022-08-16T03:14:33.847Z,17.20
2022-08-16T03:17:02.373Z,17.20
2022-08-16T03:19:47.655Z,17.20
2022-08-16T03:22:28.309Z,17.30
2022-08-16T03:25:00.742Z,17.20
2022-08-16T03:27:31.286Z,17.10
2022-08-16T03:30:16.246Z,17.10
2022-08-16T03:32:47.687Z,17.20
2022-08-16T03:35:22.813Z,17.30
2022-08-16T03:38:02.403Z,17.30
2022-08-16T03:40:34.321Z,17.30
2022-08-16T03:43:19.847Z,17.30
2022-08-16T03:45:52.435Z,17.30
2022-08-16T03:48:21.239Z,17.30
2022-08-16T03:51:08.002Z,17.30
2022-08-16T03:53:38.442Z,17.40
2022-08-16T03:56:19.847Z,17.40
2022-08-16T03:58:50.885Z,17.40
2022-08-16T04:01:20.937Z,17.40
2022-08-16T04:03:50.169Z,17.40
2022-08-16T04:06:18.710Z,17.50
2022-08-16T04:08:48.039Z,17.40
2022-08-16T04:11:17.110Z,17.40
2022-08-16T04:13:59.994Z,17.30
2022-08-16T04:16:34.710Z,17.30
2022-08-16T04:19:04.608Z,17.20
2022-08-16T04:21:34.548Z,17.20
2022-08-16T04:24:03.750Z,17.20
2022-08-16T04:26:36.730Z,17.10
2022-08-16T04:29:17.123Z,17.10
2022-08-16T04:31:56.145Z,17.00
2022-08-16T04:34:27.867Z,17.00
2022-08-16T04:36:58.017Z,17.00
2022-08-16T04:39:36.988Z,17.10
2022-08-16T04:42:16.110Z,17.20
2022-08-16T04:44:54.447Z,17.20
2022-08-16T04:47:32.897Z,17.20
2022-08-16T04:50:01.995Z,17.20
2022-08-16T04:52:33.876Z,17.30
2022-08-16T04:55:07.868Z,17.30
2022-08-16T04:57:37.298Z,17.40
2022-08-16T05:00:32.470Z,17.40
2022-08-16T05:03:07.052Z,17.30
2022-08-16T05:05:45.392Z,17.30
2022-08-16T05:08:31.045Z,17.30
2022-08-16T05:11:03.703Z,17.40
2022-08-16T05:13:41.112Z,17.50
2022-08-16T05:16:16.607Z,17.50
2022-08-16T05:18:52.378Z,17.70
2022-08-16T05:21:22.239Z,17.70
2022-08-16T05:23:55.421Z,17.70
2022-08-16T05:26:27.795Z,17.90
2022-08-16T05:28:56.956Z,17.90
2022-08-16T05:31:29.872Z,17.90
2022-08-16T05:34:01.179Z,18.00
2022-08-16T05:36:34.301Z,18.10
2022-08-16T05:39:06.222Z,18.30
2022-08-16T05:41:45.260Z,18.40
2022-08-16T05:44:24.193Z,18.40
2022-08-16T05:46:54.590Z,18.70
2022-08-16T05:49:26.112Z,19.00
2022-08-16T05:52:11.475Z,19.10
2022-08-16T05:54:46.671Z,19.10
2022-08-16T05:57:16.107Z,19.10
2022-08-16T05:59:45.454Z,19.00
2022-08-16T06:02:14.570Z,19.10
2022-08-16T06:04:45.827Z,19.20
2022-08-16T06:07:24.540Z,19.20
2022-08-16T06:09:58.211Z,19.30
2022-08-16T06:12:29.118Z,19.30
2022-08-16T06:14:59.856Z,19.40
2022-08-16T06:17:42.576Z,19.50
2022-08-16T06:20:23.100Z,19.70
2022-08-16T06:22:57.502Z,19.80
2022-08-16T06:25:36.523Z,20.00
2022-08-16T06:28:09.589Z,19.90
2022-08-16T06:30:43.479Z,19.90
2022-08-16T06:33:19.948Z,20.00
2022-08-16T06:35:54.692Z,20.10
2022-08-16T06:38:32.715Z,20.20
2022-08-16T06:41:03.927Z,20.00
2022-08-16T06:43:32.123Z,20.00
2022-08-16T06:46:03.845Z,20.20
2022-08-16T06:48:33.858Z,20.20
2022-08-16T06:51:04.420Z,20.30
2022-08-16T06:53:35.422Z,20.40
2022-08-16T06:56:14.511Z,20.40
2022-08-16T06:58:51.940Z,20.60
2022-08-16T07:01:34.403Z,20.60
2022-08-16T07:04:11.853Z,20.70
2022-08-16T07:06:43.208Z,20.80
2022-08-16T07:09:12.409Z,20.90
2022-08-16T07:11:48.027Z,21.00
2022-08-16T07:14:25.621Z,21.20
2022-08-16T07:16:58.257Z,21.50
2022-08-16T07:20:01.999Z,21.60
2022-08-16T07:22:37.857Z,21.90
2022-08-16T07:25:05.414Z,22.10
2022-08-16T07:27:37.170Z,21.70
2022-08-16T07:30:39.219Z,21.80
2022-08-16T07:32:56.502Z,21.70
2022-08-16T07:35:24.904Z,21.90
2022-08-16T07:37:54.379Z,21.80
2022-08-16T07:40:49.140Z,22.00
2022-08-16T07:43:11.631Z,22.00
2022-08-16T07:45:43.062Z,21.80
2022-08-16T07:48:12.347Z,21.70
2022-08-16T07:50:57.694Z,21.80
2022-08-16T07:53:29.350Z,22.00
2022-08-16T07:55:57.778Z,22.30
2022-08-16T07:58:34.708Z,22.30
2022-08-16T08:01:10.410Z,22.40
2022-08-16T08:03:47.714Z,22.40
2022-08-16T08:06:17.489Z,22.40
2022-08-16T08:08:51.503Z,22.80
2022-08-16T08:11:21.771Z,22.90
2022-08-16T08:13:52.763Z,23.00
2022-08-16T08:16:30.688Z,23.50
2022-08-16T08:19:01.215Z,23.20
2022-08-16T08:21:58.545Z,23.10
2022-08-16T08:24:31.615Z,23.40
2022-08-16T08:27:03.850Z,23.70
2022-08-16T08:29:37.280Z,23.50
2022-08-16T08:32:58.370Z,24.00
2022-08-16T08:35:03.180Z,24.00
2022-08-16T08:37:55.764Z,24.40
2022-08-16T08:40:24.593Z,24.70
2022-08-16T08:43:00.111Z,25.00
2022-08-16T08:45:47.128Z,24.30
2022-08-16T08:48:32.944Z,24.20
2022-08-16T08:51:04.258Z,24.60
2022-08-16T08:53:33.308Z,24.80
2022-08-16T08:56:22.996Z,24.90
2022-08-16T08:58:59.175Z,24.80
2022-08-16T09:01:31.903Z,25.10
2022-08-16T09:04:06.897Z,25.40
2022-08-16T09:06:35.765Z,24.80
2022-08-16T09:09:16.476Z,25.00
2022-08-16T09:11:53.546Z,25.60
2022-08-16T09:14:33.088Z,26.10
2022-08-16T09:17:11.363Z,26.30
2022-08-16T09:19:45.689Z,26.10
2022-08-16T09:22:19.755Z,25.80
2022-08-16T09:24:52.436Z,25.90
2022-08-16T09:27:25.392Z,25.70
2022-08-16T09:30:00.397Z,25.90
2022-08-16T09:32:30.295Z,26.60
2022-08-16T09:34:59.940Z,27.20
2022-08-16T09:37:29.244Z,27.20
2022-08-16T09:39:59.485Z,26.80
2022-08-16T09:42:30.806Z,26.70
2022-08-16T09:45:18.919Z,26.30
2022-08-16T09:47:57.870Z,26.30
2022-08-16T09:50:33.250Z,26.70
2022-08-16T09:53:15.127Z,26.40
2022-08-16T09:55:46.436Z,26.60
2022-08-16T09:58:40.660Z,26.30
2022-08-16T10:01:08.508Z,26.80
2022-08-16T10:04:02.508Z,27.10
2022-08-16T10:06:33.649Z,27.30
2022-08-16T10:09:05.899Z,26.70
2022-08-16T10:11:52.517Z,26.70
2022-08-16T10:14:24.529Z,26.50
2022-08-16T10:16:59.784Z,26.70
2022-08-16T10:19:31.949Z,27.00
2022-08-16T10:22:05.062Z,27.30
2022-08-16T10:24:34.447Z,27.70
2022-08-16T10:27:26.544Z,27.90
2022-08-16T10:29:59.954Z,28.40
2022-08-16T10:32:32.219Z,28.10
2022-08-16T10:35:03.232Z,27.80
2022-08-16T10:37:35.818Z,28.00
2022-08-16T10:40:28.419Z,28.40
2022-08-16T10:42:55.405Z,27.60
2022-08-16T10:45:25.355Z,28.10
2022-08-16T10:48:02.861Z,27.90
2022-08-16T10:50:33.135Z,28.20
2022-08-16T10:53:07.548Z,28.40
2022-08-16T10:55:40.863Z,29.10
2022-08-16T10:58:17.095Z,29.00
2022-08-16T11:00:47.619Z,27.80
2022-08-16T11:06:11.947Z,28.30
2022-08-16T11:08:44.967Z,28.20
2022-08-16T11:11:19.743Z,29.00
2022-08-16T11:13:58.774Z,29.60
2022-08-16T11:19:18.156Z,28.30
2022-08-16T11:24:43.472Z,28.40
2022-08-16T11:27:19.628Z,27.60
2022-08-16T11:29:50.162Z,28.40
2022-08-16T11:32:29.863Z,28.60
2022-08-16T11:35:13.642Z,28.50
2022-08-16T11:40:38.660Z,28.30
2022-08-16T11:43:09.993Z,28.60
2022-08-16T11:45:38.479Z,28.80
2022-08-16T11:48:08.337Z,29.30
2022-08-16T11:50:36.857Z,29.90
2022-08-16T11:53:08.311Z,30.30
2022-08-16T11:55:38.527Z,30.30
2022-08-16T11:58:08.394Z,30.40
2022-08-16T12:00:50.750Z,30.40
2022-08-16T12:03:34.202Z,30.00
2022-08-16T12:06:10.867Z,30.50
2022-08-16T12:08:55.542Z,29.80
2022-08-16T12:11:26.630Z,29.10
2022-08-16T12:13:55.412Z,28.90
2022-08-16T12:16:23.571Z,29.40
2022-08-16T12:19:00.994Z,29.60
2022-08-16T12:21:57.821Z,30.10
2022-08-16T12:24:17.237Z,30.10
2022-08-16T12:26:45.666Z,29.60
2022-08-16T12:29:13.796Z,30.10
2022-08-16T12:31:59.220Z,30.70
2022-08-16T12:34:31.216Z,30.70
2022-08-16T12:37:08.991Z,30.80
2022-08-16T12:39:39.669Z,30.60
2022-08-16T12:42:20.824Z,30.50
2022-08-16T12:44:53.289Z,30.40
2022-08-16T12:47:38.854Z,30.70
2022-08-16T12:50:10.467Z,30.80
2022-08-16T12:52:44.375Z,30.00
2022-08-16T12:55:20.660Z,30.00
2022-08-16T12:57:58.437Z,29.70
2022-08-16T13:00:33.044Z,30.30
2022-08-16T13:03:03.338Z,30.40
2022-08-16T13:05:45.130Z,30.60
2022-08-16T13:08:27.419Z,30.70
2022-08-16T13:10:59.730Z,30.90
2022-08-16T13:13:29.559Z,31.30
2022-08-16T13:16:00.860Z,30.50
2022-08-16T13:18:35.632Z,29.40
2022-08-16T13:21:06.925Z,29.50
2022-08-16T13:23:35.817Z,30.30
2022-08-16T13:26:05.818Z,30.40
2022-08-16T13:28:36.820Z,30.60
2022-08-16T13:31:05.596Z,30.80
2022-08-16T13:33:37.825Z,30.40
2022-08-16T13:36:17.245Z,30.60
2022-08-16T13:38:54.584Z,30.90
2022-08-16T13:41:22.803Z,30.80
2022-08-16T13:43:57.557Z,30.60
2022-08-16T13:46:27.448Z,30.70
2022-08-16T13:48:56.650Z,30.70
2022-08-16T13:51:29.159Z,30.30
2022-08-16T13:54:03.869Z,30.20
2022-08-16T13:56:37.066Z,29.90
2022-08-16T13:59:19.447Z,30.30
2022-08-16T14:01:55.198Z,29.80
2022-08-16T14:04:27.987Z,30.10
2022-08-16T14:06:58.992Z,30.60
2022-08-16T14:09:28.449Z,30.70
2022-08-16T14:11:57.326Z,30.90
2022-08-16T14:14:28.526Z,31.00
2022-08-16T14:16:58.369Z,31.00
2022-08-16T14:19:27.920Z,31.20
2022-08-16T14:22:14.862Z,31.30
2022-08-16T14:24:50.064Z,31.40
2022-08-16T14:27:21.231Z,31.30
2022-08-16T14:29:51.520Z,31.30
2022-08-16T14:32:27.085Z,31.00
2022-08-16T14:35:04.606Z,30.60
2022-08-16T14:37:37.203Z,30.20
2022-08-16T14:40:06.406Z,30.70
2022-08-16T14:42:36.565Z,30.60
2022-08-16T14:45:06.024Z,30.50
2022-08-16T14:47:37.087Z,30.70
2022-08-16T14:50:06.064Z,31.10
2022-08-16T14:55:24.186Z,30.00
2022-08-16T14:57:54.375Z,30.30
2022-08-16T15:00:27.032Z,30.60
2022-08-16T15:03:05.859Z,30.30
2022-08-16T15:05:35.136Z,30.40
2022-08-16T15:08:04.042Z,30.40
2022-08-16T15:10:33.513Z,30.60
2022-08-16T15:13:06.794Z,30.30
2022-08-16T15:15:38.592Z,30.00
2022-08-16T15:18:11.815Z,30.00
2022-08-16T15:20:41.141Z,30.50
2022-08-16T15:23:10.176Z,30.20
2022-08-16T15:25:41.995Z,30.40
2022-08-16T15:28:30.947Z,30.60
2022-08-16T15:31:03.626Z,30.60
2022-08-16T15:33:33.111Z,30.80
2022-08-16T15:36:02.186Z,30.80
2022-08-16T15:38:56.824Z,30.50
2022-08-16T15:41:53.853Z,30.20
2022-08-16T15:44:24.838Z,30.10
2022-08-16T15:46:59.915Z,29.80
2022-08-16T15:49:38.053Z,30.10
2022-08-16T15:52:11.102Z,29.70
2022-08-16T15:54:52.481Z,29.80
2022-08-16T15:57:24.076Z,30.00
2022-08-16T15:59:55.908Z,30.10
2022-08-16T16:02:29.242Z,30.10
2022-08-16T16:05:01.029Z,30.20
2022-08-16T16:07:31.886Z,30.30
2022-08-16T16:10:00.357Z,30.20
2022-08-16T16:12:51.429Z,30.10
2022-08-16T16:15:20.246Z,30.20
2022-08-16T16:17:52.412Z,30.30
2022-08-16T16:20:24.401Z,30.20
2022-08-16T16:22:57.667Z,29.90
2022-08-16T16:25:26.594Z,30.00
2022-08-16T16:27:59.817Z,30.10
2022-08-16T16:30:37.838Z,30.20
2022-08-16T16:33:20.494Z,30.10
2022-08-16T16:35:56.453Z,29.90
2022-08-16T16:38:30.073Z,29.70
2022-08-16T16:40:58.219Z,29.60
2022-08-16T16:43:31.654Z,29.60
2022-08-16T16:46:02.242Z,29.40
2022-08-16T16:48:35.131Z,29.30
2022-08-16T16:51:09.503Z,29.00
2022-08-16T16:53:42.201Z,29.10
2022-08-16T16:56:20.159Z,29.20
2022-08-16T16:59:01.041Z,29.30
2022-08-16T17:01:35.117Z,29.30
2022-08-16T17:04:27.383Z,29.30
2022-08-16T17:07:01.611Z,29.20
2022-08-16T17:09:30.217Z,29.10
2022-08-16T17:11:59.304Z,29.10
2022-08-16T17:14:33.593Z,29.00
2022-08-16T17:17:06.110Z,28.90
2022-08-16T17:19:34.361Z,28.80
2022-08-16T17:22:13.931Z,28.70
2022-08-16T17:24:45.321Z,28.70
2022-08-16T17:27:33.214Z,28.60
2022-08-16T17:30:15.033Z,28.60
2022-08-16T17:32:48.254Z,28.30
2022-08-16T17:35:20.931Z,28.10
2022-08-16T17:37:52.547Z,28.00
2022-08-16T17:40:50.456Z,27.80
2022-08-16T17:43:30.376Z,27.70
2022-08-16T17:46:00.839Z,27.70
2022-08-16T17:48:31.130Z,27.50
2022-08-16T17:50:59.542Z,27.30
2022-08-16T17:53:27.568Z,27.20
2022-08-16T17:55:56.229Z,27.10
2022-08-16T17:58:24.710Z,26.80
2022-08-16T18:00:55.889Z,26.60
2022-08-16T18:04:07.147Z,26.30
2022-08-16T18:06:18.371Z,26.00
2022-08-16T18:08:48.981Z,25.80
2022-08-16T18:11:26.204Z,25.70
2022-08-16T18:13:55.327Z,25.50
2022-08-16T18:16:23.642Z,25.40
2022-08-16T18:18:52.908Z,25.20
2022-08-16T18:21:38.625Z,25.10
2022-08-16T18:24:06.944Z,25.00
2022-08-16T18:26:35.376Z,24.80
2022-08-16T18:29:03.804Z,24.80
2022-08-16T18:31:32.179Z,24.80
2022-08-16T18:34:02.744Z,24.70
2022-08-16T18:36:30.859Z,24.60
2022-08-16T18:38:59.342Z,24.40
2022-08-16T18:41:28.977Z,24.30
2022-08-16T18:44:24.093Z,24.20
2022-08-16T18:46:50.971Z,24.20
2022-08-16T18:49:20.840Z,24.10
2022-08-16T18:51:50.800Z,24.10
2022-08-16T18:54:19.296Z,24.00
2022-08-16T18:56:55.105Z,24.00
2022-08-16T18:59:30.155Z,23.90
2022-08-16T19:02:04.935Z,23.80
2022-08-16T19:04:48.013Z,23.80
2022-08-16T19:07:30.538Z,23.80
2022-08-16T19:10:00.295Z,23.80
2022-08-16T19:12:37.987Z,23.80
2022-08-16T19:15:22.357Z,23.70
2022-08-16T19:17:50.312Z,23.80
2022-08-16T19:20:21.999Z,23.80
2022-08-16T19:23:10.383Z,23.70
2022-08-16T19:25:46.664Z,23.70
2022-08-16T19:28:50.503Z,23.50
2022-08-16T19:31:07.404Z,23.50
2022-08-16T19:33:35.473Z,23.40
2022-08-16T19:36:06.930Z,23.30
2022-08-16T19:38:40.234Z,23.20
2022-08-16T19:41:09.836Z,23.20
2022-08-16T19:43:38.000Z,23.20
2022-08-16T19:46:06.362Z,23.20
2022-08-16T19:48:34.375Z,23.20
2022-08-16T19:51:02.559Z,23.30
2022-08-16T19:53:31.936Z,23.20
2022-08-16T19:55:59.936Z,23.10
2022-08-16T19:58:27.981Z,23.10
2022-08-16T20:00:56.402Z,23.10
2022-08-16T20:03:25.742Z,23.00
2022-08-16T20:05:54.184Z,22.90
2022-08-16T20:08:22.644Z,22.90
2022-08-16T20:10:52.014Z,22.90
2022-08-16T20:13:22.167Z,22.90
2022-08-16T20:15:51.282Z,22.90
2022-08-16T20:18:24.831Z,23.00
2022-08-16T20:20:55.291Z,23.00
2022-08-16T20:23:25.587Z,23.00
2022-08-16T20:25:56.550Z,23.00
2022-08-16T20:28:52.045Z,23.10
2022-08-16T20:31:12.970Z,23.00
2022-08-16T20:33:40.962Z,22.80
2022-08-16T20:36:09.625Z,22.70
2022-08-16T20:38:46.875Z,22.60
2022-08-16T20:41:17.214Z,22.50
2022-08-16T20:43:45.447Z,22.60
2022-08-16T20:46:14.000Z,22.60
2022-08-16T20:48:42.095Z,22.60
2022-08-16T20:51:11.367Z,22.60
2022-08-16T20:53:40.205Z,22.60
2022-08-16T20:56:09.018Z,22.50
2022-08-16T20:58:38.473Z,22.50
2022-08-16T21:01:07.582Z,22.40
2022-08-16T21:03:35.804Z,22.30
2022-08-16T21:06:04.557Z,22.30
2022-08-16T21:09:00.561Z,22.20
2022-08-16T21:11:28.931Z,22.20
2022-08-16T21:14:00.569Z,22.20
2022-08-16T21:16:29.050Z,22.20
2022-08-16T21:18:57.852Z,22.10
2022-08-16T21:21:31.950Z,22.10
2022-08-16T21:24:02.107Z,22.10
2022-08-16T21:26:30.120Z,22.10
2022-08-16T21:28:59.488Z,22.00
2022-08-16T21:31:27.646Z,22.00
2022-08-16T21:33:56.511Z,22.00
2022-08-16T21:36:35.031Z,22.00
2022-08-16T21:39:05.965Z,22.00
2022-08-16T21:41:33.974Z,21.80
2022-08-16T21:44:03.634Z,21.70
2022-08-16T21:46:33.561Z,21.60
2022-08-16T21:49:01.742Z,21.60
2022-08-16T21:51:29.903Z,21.60
2022-08-16T21:53:57.813Z,21.60
2022-08-16T21:56:25.740Z,21.60
2022-08-16T21:58:53.809Z,21.60
2022-08-16T22:01:23.822Z,21.60
2022-08-16T22:04:03.623Z,21.40
2022-08-16T22:06:41.305Z,21.50
2022-08-16T22:09:11.087Z,21.40
2022-08-16T22:11:39.473Z,21.40
2022-08-16T22:14:07.848Z,21.30
2022-08-16T22:16:39.370Z,21.20
2022-08-16T22:19:07.765Z,21.20
2022-08-16T22:21:36.675Z,21.20
2022-08-16T22:24:05.701Z,21.10
2022-08-16T22:26:40.895Z,21.00
2022-08-16T22:29:14.412Z,21.00
2022-08-16T22:31:44.570Z,20.90
2022-08-16T22:34:13.221Z,20.80
2022-08-16T22:36:41.198Z,20.80
2022-08-16T22:39:13.157Z,20.90
2022-08-16T22:41:43.222Z,21.00
2022-08-16T22:44:11.300Z,20.90
2022-08-16T22:46:39.425Z,20.80
2022-08-16T22:49:09.853Z,20.70
2022-08-16T22:51:38.379Z,20.80
2022-08-16T22:54:44.265Z,20.70
2022-08-16T22:56:56.556Z,20.70
2022-08-16T22:59:25.057Z,20.80
2022-08-16T23:01:53.554Z,20.80
2022-08-16T23:04:23.889Z,20.70
2022-08-16T23:06:52.178Z,20.70
2022-08-16T23:09:20.317Z,20.50
2022-08-16T23:11:48.513Z,20.50
2022-08-16T23:14:17.435Z,20.50
2022-08-16T23:16:47.166Z,20.40
2022-08-16T23:19:16.917Z,20.40
2022-08-16T23:21:49.405Z,20.30
2022-08-16T23:24:19.421Z,20.40
2022-08-16T23:26:49.383Z,20.40
2022-08-16T23:29:24.398Z,20.40
2022-08-16T23:31:59.376Z,20.40
2022-08-16T23:34:28.842Z,20.40
2022-08-16T23:36:58.214Z,20.50
2022-08-16T23:39:26.408Z,20.50
2022-08-16T23:41:55.637Z,20.40
2022-08-16T23:44:56.003Z,20.50
2022-08-16T23:47:11.890Z,20.40
2022-08-16T23:49:56.077Z,20.40
2022-08-16T23:52:40.601Z,20.40
2022-08-16T23:55:17.689Z,20.30
2022-08-16T23:57:46.330Z,20.20
